HEGN 230700Z 34005KT CAVOK 33/08 Q1010 NOSIG
From batch tds/metars/production/2022/9/23/h07_m55_metars.cache.csv.gz
Observed at (13 days ago)
Identifier HEGN
talk